Terminal Aerodrome Forecast
Issued by NWS Sterling, VA

Current Version | Previous Version | Text Only | Print | Product List | Glossary Off
Versions: 1 2 3 4 5 6 7 8 9 10 11 12 13 14 15 16 17 18 19 20 21 22 23 24 25

000
FTUS41 KLWX 210900 AAA
TAFDCA
TAF AMD
KDCA 210906Z 2109/2206 18006KT P6SM BKN080
     FM211400 28004KT P6SM BKN060
     FM212000 28004KT 6SM -SHRA BKN040
     FM220100 VRB03KT P6SM OVC050=

USA.gov is the U.S. government's official web portal to all federal, state and local government web resources and services.